Pagrindinis puslapis
METAR-TAF:

METAR-TAF

Oro uostai :

Sharjah, Jungtiniai Arabų Emyratai

platuma: 25-20N, ilguma: 055-31E, Aukštis: 35 m

Dabartinis oras

Ataskaita buvo paskelbta 33 minutes, ne 03:00 UTC
Vėjas 5 kt iš Pietryčių
Temperatūra 32°C
Drėgmė 63%
Slėgis 999 hPa
Matomumas 10 km arba daugiau
nėra debesų žemiau 1500 m ir nėra kamuolinių lietaus debesų

METAR: OMSJ 160300Z 13005KT CAVOK 32/24 Q0999 NOSIG

Laikas: 07:33 (03:33 UTC)

Prognozė

Ataskaita buvo paskelbta 4 valandos ir 33 minutes, ne 23:00 UTC
Prognozė galioja nuo 16 metu 00 UTC su 17 metu 06 UTC
Vėjas 7 kt iš Rytų/Pietryčių
Matomumas: 8000 m
Tikimybė 30%
nuo 16 metu 01 UTC su 16 metu 07 UTC
Matomumas: 4000 m
dulkės
Tapsmas
nuo 16 metu 08 UTC su 16 metu 10 UTC
Vėjas 14 kt iš Šiaurės/Šiaurės Vakarų
Tapsmas
nuo 16 metu 16 UTC su 16 metu 18 UTC
Vėjas 2 kt nuo kintamojo kryptimis

TAF: OMSJ 152300Z 1600/1706 12007KT 8000 NSC PROB30 1601/1607 4000 DU BECMG 1608/1610 34014KT BECMG 1616/1618 VRB02KT

Orai ataskaitas ir orų prognozės (METAR, TAF).

turimą stotys yra geltonos ir raudonos taškus žemėlapyje.

Perkelti pele per norėdami pamatyti stoties vardą.

Tada spustelėkite, norėdami matyti oro stebėjimo ir prognozės.

Norėdami pakeisti žemėlapį: spustelėkite ant žalios mygtukų su juodo kryžiaus žemyn,; žalią mygtuką su brūkšneliu, jei norite nutolinti; arba žalių rodyklių gretimoms žemėlapius.


METAR-TAF: